Flat Fork, Texas
Current Conditions -  °F | °C
As of 1:15 PM on Friday 24 Oct 2014 (Local Time) from KOCH Reporting Station
Clear Clear  
Wind Chill: 75°   Ceiling: Unl
Heat Index: 75°   Visibility: 10mi
Dew Point: 52°   Wind: 3mph
Humidity: 44%   Direction: 330°NNW
Pressure: 30.15"   Gusts: NA
Location:  31.9382°N, 94.2541°W
Report Text: KOCH 241815Z AUTO 33003KT 10SM CLR 24/11 A3015 RMK AO1
Loading
Personal Weather Stations






























Interactive Weather Map
Tropical Storm Tracking
New forecast layout! Learn more

10-Day Weather Forecast

Advertisements
Track Severe Weather on mobile